sensor_id;sensor_type;location;lat;lon;timestamp;pressure;altitude;pressure_sealevel;temperature;humidity
9462;BME280;4769;42.660;23.262;2023-06-22T00:00:32;94413.66;;;22.57;72.48
9462;BME280;4769;42.660;23.262;2023-06-22T00:03:03;94418.38;;;22.38;74.04
9462;BME280;4769;42.660;23.262;2023-06-22T00:05:31;94408.44;;;22.17;75.12
9462;BME280;4769;42.660;23.262;2023-06-22T00:08:18;94403.22;;;21.98;75.67
9462;BME280;4769;42.660;23.262;2023-06-22T00:10:48;94415.19;;;21.65;74.99
9462;BME280;4769;42.660;23.262;2023-06-22T00:13:29;94411.97;;;21.41;75.98
9462;BME280;4769;42.660;23.262;2023-06-22T00:16:10;94411.63;;;21.70;74.58
9462;BME280;4769;42.660;23.262;2023-06-22T00:18:47;94406.34;;;21.65;74.36
9462;BME280;4769;42.660;23.262;2023-06-22T00:21:14;94398.63;;;21.63;74.63
9462;BME280;4769;42.660;23.262;2023-06-22T00:26:51;94374.66;;;21.67;74.23
9462;BME280;4769;42.660;23.262;2023-06-22T00:29:17;94374.34;;;21.68;75.15
9462;BME280;4769;42.660;23.262;2023-06-22T00:32:00;94390.50;;;21.90;74.32
9462;BME280;4769;42.660;23.262;2023-06-22T00:34:27;94389.91;;;21.93;74.67
9462;BME280;4769;42.660;23.262;2023-06-22T00:36:59;94387.09;;;21.98;74.37
9462;BME280;4769;42.660;23.262;2023-06-22T00:39:28;94395.22;;;22.07;74.01
9462;BME280;4769;42.660;23.262;2023-06-22T00:41:58;94396.44;;;22.01;74.57
9462;BME280;4769;42.660;23.262;2023-06-22T00:44:26;94391.31;;;21.91;75.38
9462;BME280;4769;42.660;23.262;2023-06-22T00:46:58;94392.72;;;21.88;76.04
9462;BME280;4769;42.660;23.262;2023-06-22T00:52:35;94380.00;;;21.80;75.41
9462;BME280;4769;42.660;23.262;2023-06-22T00:57:46;94385.53;;;21.97;74.58
9462;BME280;4769;42.660;23.262;2023-06-22T01:00:26;94388.44;;;22.09;74.58
9462;BME280;4769;42.660;23.262;2023-06-22T01:02:53;94379.34;;;21.97;74.83
9462;BME280;4769;42.660;23.262;2023-06-22T01:05:25;94403.28;;;22.07;75.57
9462;BME280;4769;42.660;23.262;2023-06-22T01:08:02;94401.13;;;21.95;76.70
9462;BME280;4769;42.660;23.262;2023-06-22T01:10:41;94400.66;;;21.93;76.61
9462;BME280;4769;42.660;23.262;2023-06-22T01:13:29;94405.53;;;21.91;77.20
9462;BME280;4769;42.660;23.262;2023-06-22T01:16:02;94411.38;;;21.93;77.25
9462;BME280;4769;42.660;23.262;2023-06-22T01:18:35;94407.13;;;21.92;78.53
9462;BME280;4769;42.660;23.262;2023-06-22T01:21:25;94404.66;;;21.82;78.54
9462;BME280;4769;42.660;23.262;2023-06-22T01:24:22;94388.78;;;21.59;79.18
9462;BME280;4769;42.660;23.262;2023-06-22T01:27:04;94400.59;;;21.71;78.07
9462;BME280;4769;42.660;23.262;2023-06-22T01:29:39;94400.13;;;21.69;77.58
9462;BME280;4769;42.660;23.262;2023-06-22T01:32:09;94401.09;;;21.73;77.86
9462;BME280;4769;42.660;23.262;2023-06-22T01:34:36;94416.41;;;21.86;77.13
9462;BME280;4769;42.660;23.262;2023-06-22T01:37:04;94409.34;;;21.77;78.68
9462;BME280;4769;42.660;23.262;2023-06-22T01:39:39;94414.91;;;21.80;79.58
9462;BME280;4769;42.660;23.262;2023-06-22T01:45:05;94416.63;;;21.49;81.67
9462;BME280;4769;42.660;23.262;2023-06-22T01:47:36;94410.88;;;21.02;83.93
9462;BME280;4769;42.660;23.262;2023-06-22T01:50:09;94411.25;;;20.95;83.68
9462;BME280;4769;42.660;23.262;2023-06-22T01:52:36;94421.59;;;21.15;81.87
9462;BME280;4769;42.660;23.262;2023-06-22T01:55:02;94421.38;;;21.25;81.86
9462;BME280;4769;42.660;23.262;2023-06-22T01:57:33;94415.72;;;21.27;81.26
9462;BME280;4769;42.660;23.262;2023-06-22T02:00:13;94424.78;;;21.31;80.31
9462;BME280;4769;42.660;23.262;2023-06-22T02:02:47;94420.81;;;21.28;80.05
9462;BME280;4769;42.660;23.262;2023-06-22T02:08:02;94439.50;;;21.47;79.82
9462;BME280;4769;42.660;23.262;2023-06-22T02:10:32;94439.78;;;21.45;79.46
9462;BME280;4769;42.660;23.262;2023-06-22T02:13:04;94446.72;;;21.46;80.79
9462;BME280;4769;42.660;23.262;2023-06-22T02:15:40;94432.91;;;21.39;80.74
9462;BME280;4769;42.660;23.262;2023-06-22T02:18:07;94424.19;;;21.34;81.06
9462;BME280;4769;42.660;23.262;2023-06-22T02:20:32;94423.56;;;21.37;81.14
9462;BME280;4769;42.660;23.262;2023-06-22T02:23:09;94428.25;;;21.45;81.05
9462;BME280;4769;42.660;23.262;2023-06-22T02:25:35;94414.44;;;21.38;80.42
9462;BME280;4769;42.660;23.262;2023-06-22T02:28:03;94416.81;;;21.39;80.02
9462;BME280;4769;42.660;23.262;2023-06-22T02:30:35;94431.22;;;21.43;79.82
9462;BME280;4769;42.660;23.262;2023-06-22T02:33:04;94422.78;;;21.36;80.23
9462;BME280;4769;42.660;23.262;2023-06-22T02:35:53;94420.00;;;21.28;80.53
9462;BME280;4769;42.660;23.262;2023-06-22T02:38:26;94414.06;;;21.17;80.87
9462;BME280;4769;42.660;23.262;2023-06-22T02:41:01;94414.06;;;21.17;80.71
9462;BME280;4769;42.660;23.262;2023-06-22T02:43:31;94420.31;;;21.26;80.62
9462;BME280;4769;42.660;23.262;2023-06-22T02:46:02;94417.03;;;21.29;80.47
9462;BME280;4769;42.660;23.262;2023-06-22T02:51:09;94416.44;;;21.32;82.08
9462;BME280;4769;42.660;23.262;2023-06-22T02:53:36;94419.44;;;21.17;83.86
9462;BME280;4769;42.660;23.262;2023-06-22T02:56:11;94415.66;;;21.05;85.27
9462;BME280;4769;42.660;23.262;2023-06-22T02:58:38;94415.50;;;20.83;86.45
9462;BME280;4769;42.660;23.262;2023-06-22T03:01:11;94429.66;;;20.70;87.47
9462;BME280;4769;42.660;23.262;2023-06-22T03:03:36;94422.44;;;20.84;86.42
9462;BME280;4769;42.660;23.262;2023-06-22T03:06:17;94422.19;;;20.99;85.05
9462;BME280;4769;42.660;23.262;2023-06-22T03:08:58;94414.88;;;20.86;86.67
9462;BME280;4769;42.660;23.262;2023-06-22T03:11:27;94427.25;;;21.00;86.08
9462;BME280;4769;42.660;23.262;2023-06-22T03:13:54;94442.25;;;21.01;85.99
9462;BME280;4769;42.660;23.262;2023-06-22T03:16:22;94433.06;;;20.89;85.71
9462;BME280;4769;42.660;23.262;2023-06-22T03:18:54;94435.03;;;20.83;85.51
9462;BME280;4769;42.660;23.262;2023-06-22T03:21:23;94453.78;;;21.02;85.25
9462;BME280;4769;42.660;23.262;2023-06-22T03:24:07;94458.94;;;21.12;86.67
9462;BME280;4769;42.660;23.262;2023-06-22T03:26:50;94455.44;;;21.11;85.62
9462;BME280;4769;42.660;23.262;2023-06-22T03:32:16;94454.78;;;21.19;85.71
9462;BME280;4769;42.660;23.262;2023-06-22T03:35:11;94437.47;;;21.25;86.45
9462;BME280;4769;42.660;23.262;2023-06-22T03:37:42;94461.94;;;21.24;85.70
9462;BME280;4769;42.660;23.262;2023-06-22T03:40:34;94451.00;;;21.47;84.36
9462;BME280;4769;42.660;23.262;2023-06-22T03:43:02;94472.59;;;21.69;84.98
9462;BME280;4769;42.660;23.262;2023-06-22T03:45:48;94474.47;;;21.55;83.00
9462;BME280;4769;42.660;23.262;2023-06-22T03:48:18;94477.66;;;21.30;84.59
9462;BME280;4769;42.660;23.262;2023-06-22T03:50:50;94483.81;;;21.44;84.13
9462;BME280;4769;42.660;23.262;2023-06-22T03:53:21;94490.97;;;21.35;85.68
9462;BME280;4769;42.660;23.262;2023-06-22T04:35:10;94453.31;;;22.38;82.26
9462;BME280;4769;42.660;23.262;2023-06-22T04:38:03;94457.25;;;22.54;81.31
9462;BME280;4769;42.660;23.262;2023-06-22T04:40:32;94450.41;;;22.70;81.37
9462;BME280;4769;42.660;23.262;2023-06-22T04:43:05;94461.69;;;22.81;80.67
9462;BME280;4769;42.660;23.262;2023-06-22T04:45:31;94451.75;;;22.81;80.07
9462;BME280;4769;42.660;23.262;2023-06-22T04:47:57;94462.09;;;22.96;78.77
9462;BME280;4769;42.660;23.262;2023-06-22T04:50:36;94465.78;;;23.00;78.22
9462;BME280;4769;42.660;23.262;2023-06-22T04:54:01;94465.28;;;22.98;79.21
9462;BME280;4769;42.660;23.262;2023-06-22T04:56:21;94475.91;;;23.03;78.64
9462;BME280;4769;42.660;23.262;2023-06-22T04:59:17;94482.00;;;23.17;78.23
9462;BME280;4769;42.660;23.262;2023-06-22T05:01:45;94476.34;;;23.19;77.91
9462;BME280;4769;42.660;23.262;2023-06-22T05:04:13;94474.00;;;23.04;77.86
9462;BME280;4769;42.660;23.262;2023-06-22T05:06:53;94468.91;;;23.24;77.50
9462;BME280;4769;42.660;23.262;2023-06-22T05:09:21;94475.97;;;23.42;77.19
9462;BME280;4769;42.660;23.262;2023-06-22T05:14:58;94467.00;;;23.64;75.62
9462;BME280;4769;42.660;23.262;2023-06-22T05:17:34;94467.22;;;23.76;76.25
9462;BME280;4769;42.660;23.262;2023-06-22T05:20:02;94450.91;;;23.81;76.75
9462;BME280;4769;42.660;23.262;2023-06-22T05:22:32;94473.94;;;23.96;75.62
9462;BME280;4769;42.660;23.262;2023-06-22T05:24:58;94454.38;;;23.73;76.27
9462;BME280;4769;42.660;23.262;2023-06-22T05:27:27;94478.72;;;24.16;75.93
9462;BME280;4769;42.660;23.262;2023-06-22T05:30:11;94464.16;;;24.34;74.78
9462;BME280;4769;42.660;23.262;2023-06-22T05:32:40;94479.84;;;24.32;73.98
9462;BME280;4769;42.660;23.262;2023-06-22T05:35:07;94476.69;;;24.30;74.43
9462;BME280;4769;42.660;23.262;2023-06-22T05:37:35;94482.88;;;24.47;74.27
9462;BME280;4769;42.660;23.262;2023-06-22T05:40:01;94486.50;;;24.34;74.37
9462;BME280;4769;42.660;23.262;2023-06-22T05:42:27;94494.78;;;24.80;75.94
9462;BME280;4769;42.660;23.262;2023-06-22T05:44:52;94494.22;;;25.38;72.22
9462;BME280;4769;42.660;23.262;2023-06-22T05:47:18;94501.41;;;25.71;71.23
9462;BME280;4769;42.660;23.262;2023-06-22T05:49:44;94496.31;;;25.70;69.85
9462;BME280;4769;42.660;23.262;2023-06-22T05:52:09;94494.69;;;25.77;69.39
9462;BME280;4769;42.660;23.262;2023-06-22T05:54:38;94504.88;;;25.72;68.28
9462;BME280;4769;42.660;23.262;2023-06-22T05:57:04;94511.72;;;25.69;70.01
9462;BME280;4769;42.660;23.262;2023-06-22T05:59:30;94508.66;;;25.79;69.44
9462;BME280;4769;42.660;23.262;2023-06-22T06:01:56;94502.00;;;26.14;67.40
9462;BME280;4769;42.660;23.262;2023-06-22T06:04:24;94498.72;;;26.50;66.26
9462;BME280;4769;42.660;23.262;2023-06-22T06:06:50;94507.66;;;26.21;65.66
9462;BME280;4769;42.660;23.262;2023-06-22T06:09:16;94489.34;;;26.27;65.67
9462;BME280;4769;42.660;23.262;2023-06-22T06:11:44;94493.41;;;26.62;65.40
9462;BME280;4769;42.660;23.262;2023-06-22T06:14:10;94493.44;;;26.94;64.35
9462;BME280;4769;42.660;23.262;2023-06-22T06:16:36;94483.13;;;27.41;63.41
9462;BME280;4769;42.660;23.262;2023-06-22T06:19:02;94487.69;;;27.85;62.43
9462;BME280;4769;42.660;23.262;2023-06-22T06:21:28;94471.75;;;28.19;61.08
9462;BME280;4769;42.660;23.262;2023-06-22T06:23:54;94487.69;;;28.21;59.99
9462;BME280;4769;42.660;23.262;2023-06-22T06:26:19;94477.16;;;28.43;58.96
9462;BME280;4769;42.660;23.262;2023-06-22T06:28:51;94475.66;;;28.58;59.35
9462;BME280;4769;42.660;23.262;2023-06-22T06:31:17;94476.41;;;28.70;57.38
9462;BME280;4769;42.660;23.262;2023-06-22T06:33:42;94493.63;;;28.62;57.99
9462;BME280;4769;42.660;23.262;2023-06-22T06:36:08;94477.19;;;28.71;57.89
9462;BME280;4769;42.660;23.262;2023-06-22T06:38:34;94477.25;;;28.98;56.80
9462;BME280;4769;42.660;23.262;2023-06-22T06:40:59;94478.13;;;29.45;55.94
9462;BME280;4769;42.660;23.262;2023-06-22T06:43:25;94475.53;;;29.95;53.62
9462;BME280;4769;42.660;23.262;2023-06-22T06:45:54;94465.09;;;30.13;52.88
9462;BME280;4769;42.660;23.262;2023-06-22T06:48:19;94468.97;;;30.46;51.98
9462;BME280;4769;42.660;23.262;2023-06-22T06:50:45;94468.38;;;30.72;51.22
9462;BME280;4769;42.660;23.262;2023-06-22T06:53:11;94459.34;;;30.87;51.22
9462;BME280;4769;42.660;23.262;2023-06-22T06:55:37;94440.38;;;31.13;51.27
9462;BME280;4769;42.660;23.262;2023-06-22T06:58:02;94449.63;;;31.69;50.25
9462;BME280;4769;42.660;23.262;2023-06-22T07:00:28;94459.38;;;31.92;47.92
9462;BME280;4769;42.660;23.262;2023-06-22T07:02:57;94441.56;;;30.93;50.55
9462;BME280;4769;42.660;23.262;2023-06-22T07:05:23;94444.47;;;30.12;52.54
9462;BME280;4769;42.660;23.262;2023-06-22T07:07:48;94450.56;;;30.40;51.81
9462;BME280;4769;42.660;23.262;2023-06-22T07:10:14;94440.81;;;30.73;51.08
9462;BME280;4769;42.660;23.262;2023-06-22T07:12:40;94451.00;;;30.61;51.88
9462;BME280;4769;42.660;23.262;2023-06-22T07:15:07;94452.91;;;30.41;52.64
9462;BME280;4769;42.660;23.262;2023-06-22T07:17:33;94446.28;;;30.58;52.37
9462;BME280;4769;42.660;23.262;2023-06-22T07:20:03;94452.75;;;30.69;52.66
9462;BME280;4769;42.660;23.262;2023-06-22T07:22:29;94443.69;;;30.65;52.72
9462;BME280;4769;42.660;23.262;2023-06-22T07:24:59;94444.78;;;30.26;52.86
9462;BME280;4769;42.660;23.262;2023-06-22T07:27:24;94446.38;;;30.11;54.05
9462;BME280;4769;42.660;23.262;2023-06-22T07:29:50;94457.97;;;30.43;53.97
9462;BME280;4769;42.660;23.262;2023-06-22T07:32:16;94448.38;;;30.64;53.26
9462;BME280;4769;42.660;23.262;2023-06-22T07:34:42;94446.41;;;29.49;55.56
9462;BME280;4769;42.660;23.262;2023-06-22T07:37:10;94460.38;;;29.63;55.75
9462;BME280;4769;42.660;23.262;2023-06-22T07:39:36;94450.59;;;29.93;54.94
9462;BME280;4769;42.660;23.262;2023-06-22T07:42:02;94450.94;;;29.92;55.34
9462;BME280;4769;42.660;23.262;2023-06-22T07:44:28;94467.84;;;29.66;56.99
9462;BME280;4769;42.660;23.262;2023-06-22T07:46:54;94464.47;;;29.88;57.75
9462;BME280;4769;42.660;23.262;2023-06-22T07:49:19;94457.72;;;29.67;57.37
9462;BME280;4769;42.660;23.262;2023-06-22T07:51:45;94470.09;;;28.94;60.38
9462;BME280;4769;42.660;23.262;2023-06-22T07:54:13;94473.31;;;28.84;59.87
9462;BME280;4769;42.660;23.262;2023-06-22T07:56:39;94478.63;;;28.29;62.18
9462;BME280;4769;42.660;23.262;2023-06-22T07:59:07;94472.41;;;28.52;61.69
9462;BME280;4769;42.660;23.262;2023-06-22T08:01:35;94463.97;;;29.09;61.17
9462;BME280;4769;42.660;23.262;2023-06-22T08:04:10;94459.75;;;29.70;60.19
9462;BME280;4769;42.660;23.262;2023-06-22T08:06:36;94464.13;;;29.16;59.96
9462;BME280;4769;42.660;23.262;2023-06-22T08:09:02;94454.69;;;28.70;61.21
9462;BME280;4769;42.660;23.262;2023-06-22T08:12:11;94454.13;;;29.04;59.74
9462;BME280;4769;42.660;23.262;2023-06-22T08:14:27;94437.34;;;29.92;57.86
9462;BME280;4769;42.660;23.262;2023-06-22T08:17:43;94444.13;;;30.48;56.38
9462;BME280;4769;42.660;23.262;2023-06-22T08:19:46;94433.13;;;30.79;55.25
9462;BME280;4769;42.660;23.262;2023-06-22T08:22:12;94435.41;;;30.77;55.69
9462;BME280;4769;42.660;23.262;2023-06-22T08:24:37;94447.91;;;30.62;56.09
9462;BME280;4769;42.660;23.262;2023-06-22T08:27:46;94434.88;;;30.52;54.66
9462;BME280;4769;42.660;23.262;2023-06-22T08:36:12;94441.06;;;31.25;53.14
9462;BME280;4769;42.660;23.262;2023-06-22T08:38:37;94439.44;;;30.83;53.71
9462;BME280;4769;42.660;23.262;2023-06-22T08:41:03;94443.66;;;30.99;54.57
9462;BME280;4769;42.660;23.262;2023-06-22T08:43:32;94438.53;;;30.98;52.89
9462;BME280;4769;42.660;23.262;2023-06-22T08:45:57;94443.56;;;31.34;51.46
9462;BME280;4769;42.660;23.262;2023-06-22T08:48:23;94442.56;;;31.23;52.70
9462;BME280;4769;42.660;23.262;2023-06-22T08:50:49;94443.69;;;31.86;51.59
9462;BME280;4769;42.660;23.262;2023-06-22T08:53:15;94421.84;;;32.64;48.69
9462;BME280;4769;42.660;23.262;2023-06-22T08:55:41;94429.38;;;33.37;46.26
9462;BME280;4769;42.660;23.262;2023-06-22T08:58:06;94413.34;;;33.75;45.46
9462;BME280;4769;42.660;23.262;2023-06-22T09:00:35;94418.34;;;34.17;44.78
9462;BME280;4769;42.660;23.262;2023-06-22T09:03:00;94411.06;;;34.35;42.64
9462;BME280;4769;42.660;23.262;2023-06-22T09:05:26;94407.28;;;34.57;42.07
9462;BME280;4769;42.660;23.262;2023-06-22T09:07:52;94403.66;;;34.35;41.74
9462;BME280;4769;42.660;23.262;2023-06-22T09:10:18;94399.75;;;34.43;40.50
9462;BME280;4769;42.660;23.262;2023-06-22T09:15:42;94417.34;;;34.35;38.40
9462;BME280;4769;42.660;23.262;2023-06-22T09:18:10;94413.41;;;35.08;37.37
9462;BME280;4769;42.660;23.262;2023-06-22T09:20:36;94404.47;;;35.32;35.74
9462;BME280;4769;42.660;23.262;2023-06-22T09:23:02;94405.13;;;34.97;36.56
9462;BME280;4769;42.660;23.262;2023-06-22T09:25:27;94417.38;;;33.48;38.68
9462;BME280;4769;42.660;23.262;2023-06-22T09:27:53;94409.19;;;31.97;43.39
9462;BME280;4769;42.660;23.262;2023-06-22T09:30:19;94417.63;;;32.70;42.55
9462;BME280;4769;42.660;23.262;2023-06-22T09:32:47;94415.25;;;33.31;40.95
9462;BME280;4769;42.660;23.262;2023-06-22T09:35:13;94422.03;;;34.35;39.02
9462;BME280;4769;42.660;23.262;2023-06-22T09:37:39;94422.69;;;34.79;38.12
9462;BME280;4769;42.660;23.262;2023-06-22T09:40:08;94417.81;;;34.55;38.92
9462;BME280;4769;42.660;23.262;2023-06-22T09:42:34;94419.22;;;34.92;37.86
9462;BME280;4769;42.660;23.262;2023-06-22T09:45:03;94419.69;;;35.19;37.25
9462;BME280;4769;42.660;23.262;2023-06-22T09:47:29;94421.72;;;35.32;37.07
9462;BME280;4769;42.660;23.262;2023-06-22T09:50:13;94398.94;;;35.21;36.14
9462;BME280;4769;42.660;23.262;2023-06-22T09:52:39;94413.50;;;35.39;35.84
9462;BME280;4769;42.660;23.262;2023-06-22T09:55:05;94408.03;;;35.57;35.08
9462;BME280;4769;42.660;23.262;2023-06-22T09:57:31;94410.41;;;36.18;35.63
9462;BME280;4769;42.660;23.262;2023-06-22T09:59:57;94397.44;;;36.46;34.12
9462;BME280;4769;42.660;23.262;2023-06-22T10:02:23;94406.34;;;36.85;35.75
9462;BME280;4769;42.660;23.262;2023-06-22T10:04:49;94394.19;;;36.83;31.95
9462;BME280;4769;42.660;23.262;2023-06-22T10:07:17;94393.56;;;35.91;31.43
9462;BME280;4769;42.660;23.262;2023-06-22T10:09:43;94388.06;;;35.60;31.39
9462;BME280;4769;42.660;23.262;2023-06-22T10:12:09;94393.94;;;35.72;31.48
9462;BME280;4769;42.660;23.262;2023-06-22T10:14:34;94387.66;;;35.51;32.15
9462;BME280;4769;42.660;23.262;2023-06-22T10:17:00;94386.91;;;35.99;32.68
9462;BME280;4769;42.660;23.262;2023-06-22T10:19:26;94385.31;;;35.95;31.39
9462;BME280;4769;42.660;23.262;2023-06-22T10:21:52;94386.47;;;35.62;30.49
9462;BME280;4769;42.660;23.262;2023-06-22T10:24:21;94378.25;;;35.66;30.49
9462;BME280;4769;42.660;23.262;2023-06-22T10:26:46;94375.81;;;35.12;30.85
9462;BME280;4769;42.660;23.262;2023-06-22T10:29:12;94389.22;;;35.66;30.73
9462;BME280;4769;42.660;23.262;2023-06-22T10:31:38;94377.88;;;35.85;30.91
9462;BME280;4769;42.660;23.262;2023-06-22T10:34:06;94383.38;;;35.92;30.71
9462;BME280;4769;42.660;23.262;2023-06-22T10:36:40;94377.84;;;35.71;30.89
9462;BME280;4769;42.660;23.262;2023-06-22T10:39:06;94376.16;;;35.03;32.89
9462;BME280;4769;42.660;23.262;2023-06-22T10:41:34;94373.97;;;35.82;32.41
9462;BME280;4769;42.660;23.262;2023-06-22T10:44:00;94363.72;;;36.14;31.56
9462;BME280;4769;42.660;23.262;2023-06-22T10:46:26;94358.88;;;36.78;29.87
9462;BME280;4769;42.660;23.262;2023-06-22T10:48:55;94369.50;;;37.48;29.04
9462;BME280;4769;42.660;23.262;2023-06-22T10:51:20;94358.09;;;37.49;29.62
9462;BME280;4769;42.660;23.262;2023-06-22T10:53:46;94355.25;;;37.63;29.83
9462;BME280;4769;42.660;23.262;2023-06-22T10:56:12;94351.31;;;37.68;29.51
9462;BME280;4769;42.660;23.262;2023-06-22T10:58:41;94366.97;;;37.74;29.21
9462;BME280;4769;42.660;23.262;2023-06-22T11:01:06;94366.56;;;37.79;29.97
9462;BME280;4769;42.660;23.262;2023-06-22T11:03:32;94358.47;;;38.06;29.32
9462;BME280;4769;42.660;23.262;2023-06-22T11:05:59;94360.56;;;38.32;28.54
9462;BME280;4769;42.660;23.262;2023-06-22T11:08:25;94364.03;;;37.95;29.00
9462;BME280;4769;42.660;23.262;2023-06-22T11:10:51;94355.47;;;37.32;28.66
9462;BME280;4769;42.660;23.262;2023-06-22T11:13:17;94358.44;;;36.90;30.61
9462;BME280;4769;42.660;23.262;2023-06-22T11:16:07;94358.81;;;37.60;29.40
9462;BME280;4769;42.660;23.262;2023-06-22T11:18:35;94344.41;;;38.71;28.11
9462;BME280;4769;42.660;23.262;2023-06-22T11:21:01;94332.34;;;38.92;27.53
9462;BME280;4769;42.660;23.262;2023-06-22T11:23:26;94344.91;;;39.22;26.93
9462;BME280;4769;42.660;23.262;2023-06-22T11:25:52;94343.94;;;39.63;26.46
9462;BME280;4769;42.660;23.262;2023-06-22T11:28:18;94334.19;;;40.27;25.20
9462;BME280;4769;42.660;23.262;2023-06-22T11:30:44;94338.75;;;40.96;24.55
9462;BME280;4769;42.660;23.262;2023-06-22T11:33:12;94324.09;;;41.18;24.07
9462;BME280;4769;42.660;23.262;2023-06-22T11:35:38;94319.44;;;39.91;24.78
9462;BME280;4769;42.660;23.262;2023-06-22T11:38:04;94317.06;;;38.83;25.86
9462;BME280;4769;42.660;23.262;2023-06-22T11:40:30;94323.00;;;38.48;27.33
9462;BME280;4769;42.660;23.262;2023-06-22T11:43:17;94326.56;;;38.08;27.41
9462;BME280;4769;42.660;23.262;2023-06-22T11:45:44;94330.72;;;37.32;28.19
9462;BME280;4769;42.660;23.262;2023-06-22T11:48:13;94326.34;;;36.59;29.25
9462;BME280;4769;42.660;23.262;2023-06-22T11:50:38;94325.19;;;36.56;30.70
9462;BME280;4769;42.660;23.262;2023-06-22T11:53:04;94324.19;;;35.84;34.05
9462;BME280;4769;42.660;23.262;2023-06-22T11:55:30;94323.28;;;34.89;36.95
9462;BME280;4769;42.660;23.262;2023-06-22T11:57:56;94326.31;;;34.66;38.05
9462;BME280;4769;42.660;23.262;2023-06-22T12:00:23;94332.53;;;34.53;38.53
9462;BME280;4769;42.660;23.262;2023-06-22T12:02:48;94338.94;;;32.79;39.51
9462;BME280;4769;42.660;23.262;2023-06-22T12:05:18;94344.22;;;32.06;40.21
9462;BME280;4769;42.660;23.262;2023-06-22T12:07:44;94336.41;;;32.31;41.45
9462;BME280;4769;42.660;23.262;2023-06-22T12:10:10;94333.16;;;31.43;47.00
9462;BME280;4769;42.660;23.262;2023-06-22T12:12:36;94344.09;;;30.07;51.30
9462;BME280;4769;42.660;23.262;2023-06-22T12:15:02;94349.97;;;29.74;50.98
9462;BME280;4769;42.660;23.262;2023-06-22T12:17:28;94359.88;;;29.67;53.32
9462;BME280;4769;42.660;23.262;2023-06-22T12:19:53;94357.84;;;29.64;53.49
9462;BME280;4769;42.660;23.262;2023-06-22T12:22:23;94361.56;;;29.56;56.24
9462;BME280;4769;42.660;23.262;2023-06-22T12:24:48;94370.34;;;28.08;64.54
9462;BME280;4769;42.660;23.262;2023-06-22T12:27:15;94384.69;;;27.73;70.05
9462;BME280;4769;42.660;23.262;2023-06-22T12:29:40;94389.78;;;27.86;73.58
9462;BME280;4769;42.660;23.262;2023-06-22T12:32:07;94386.28;;;27.50;73.23
9462;BME280;4769;42.660;23.262;2023-06-22T12:34:34;94388.56;;;27.03;79.85
9462;BME280;4769;42.660;23.262;2023-06-22T12:36:59;94390.84;;;26.57;82.92
9462;BME280;4769;42.660;23.262;2023-06-22T12:39:28;94402.72;;;24.90;94.29
9462;BME280;4769;42.660;23.262;2023-06-22T12:41:53;94400.09;;;24.14;100.00
9462;BME280;4769;42.660;23.262;2023-06-22T12:44:19;94385.78;;;24.56;100.00
9462;BME280;4769;42.660;23.262;2023-06-22T12:46:45;94372.38;;;25.02;100.00
9462;BME280;4769;42.660;23.262;2023-06-22T12:49:11;94368.59;;;25.40;100.00
9462;BME280;4769;42.660;23.262;2023-06-22T12:51:39;94373.56;;;25.79;95.10
9462;BME280;4769;42.660;23.262;2023-06-22T12:54:05;94380.91;;;26.61;90.30
9462;BME280;4769;42.660;23.262;2023-06-22T12:56:33;94384.59;;;27.57;86.04
9462;BME280;4769;42.660;23.262;2023-06-22T12:58:59;94394.19;;;27.91;88.74
9462;BME280;4769;42.660;23.262;2023-06-22T13:01:25;94398.69;;;27.87;83.32
9462;BME280;4769;42.660;23.262;2023-06-22T13:03:51;94396.00;;;28.50;79.12
9462;BME280;4769;42.660;23.262;2023-06-22T13:06:16;94399.75;;;28.73;74.89
9462;BME280;4769;42.660;23.262;2023-06-22T13:08:42;94399.78;;;28.22;76.16
9462;BME280;4769;42.660;23.262;2023-06-22T13:11:08;94397.22;;;28.80;76.30
9462;BME280;4769;42.660;23.262;2023-06-22T13:13:36;94407.50;;;29.61;73.39
9462;BME280;4769;42.660;23.262;2023-06-22T13:16:02;94405.38;;;29.85;73.08
9462;BME280;4769;42.660;23.262;2023-06-22T13:18:27;94401.63;;;29.59;73.38
9462;BME280;4769;42.660;23.262;2023-06-22T13:20:53;94404.84;;;29.33;71.13
9462;BME280;4769;42.660;23.262;2023-06-22T13:23:19;94407.81;;;29.28;68.61
9462;BME280;4769;42.660;23.262;2023-06-22T13:25:45;94400.38;;;29.72;68.64
9462;BME280;4769;42.660;23.262;2023-06-22T13:28:10;94397.63;;;30.03;65.97
9462;BME280;4769;42.660;23.262;2023-06-22T13:30:39;94395.38;;;30.24;64.54
9462;BME280;4769;42.660;23.262;2023-06-22T13:33:04;94395.94;;;30.14;66.92
9462;BME280;4769;42.660;23.262;2023-06-22T13:35:30;94391.78;;;29.85;72.09
9462;BME280;4769;42.660;23.262;2023-06-22T13:37:56;94391.88;;;29.11;73.70
9462;BME280;4769;42.660;23.262;2023-06-22T13:40:21;94392.56;;;29.24;72.32
9462;BME280;4769;42.660;23.262;2023-06-22T13:42:47;94394.16;;;29.40;71.33
9462;BME280;4769;42.660;23.262;2023-06-22T13:45:13;94381.06;;;28.99;74.66
9462;BME280;4769;42.660;23.262;2023-06-22T13:47:41;94387.19;;;28.69;76.49
9462;BME280;4769;42.660;23.262;2023-06-22T13:50:08;94379.72;;;27.75;80.42
9462;BME280;4769;42.660;23.262;2023-06-22T13:52:34;94392.16;;;27.64;82.75
9462;BME280;4769;42.660;23.262;2023-06-22T13:54:59;94370.34;;;27.96;81.85
9462;BME280;4769;42.660;23.262;2023-06-22T13:57:25;94376.78;;;28.43;81.23
9462;BME280;4769;42.660;23.262;2023-06-22T13:59:51;94384.25;;;28.46;80.42
9462;BME280;4769;42.660;23.262;2023-06-22T14:02:16;94385.88;;;28.63;80.60
9462;BME280;4769;42.660;23.262;2023-06-22T14:04:45;94384.78;;;28.52;80.50
9462;BME280;4769;42.660;23.262;2023-06-22T14:07:11;94381.63;;;28.50;81.04
9462;BME280;4769;42.660;23.262;2023-06-22T14:09:36;94388.88;;;28.46;83.04
9462;BME280;4769;42.660;23.262;2023-06-22T14:12:06;94384.63;;;28.21;85.42
9462;BME280;4769;42.660;23.262;2023-06-22T14:14:32;94385.31;;;28.18;84.65
9462;BME280;4769;42.660;23.262;2023-06-22T14:16:57;94387.84;;;27.99;83.12
9462;BME280;4769;42.660;23.262;2023-06-22T14:19:23;94392.13;;;27.40;83.58
9462;BME280;4769;42.660;23.262;2023-06-22T14:21:52;94393.94;;;27.36;83.94
9462;BME280;4769;42.660;23.262;2023-06-22T14:24:17;94387.88;;;27.51;85.66
9462;BME280;4769;42.660;23.262;2023-06-22T14:26:43;94394.63;;;27.69;84.69
9462;BME280;4769;42.660;23.262;2023-06-22T14:29:09;94400.16;;;27.72;83.44
9462;BME280;4769;42.660;23.262;2023-06-22T14:31:34;94400.72;;;27.90;82.02